Aérodrome :
LOGIN :

S'inscrire | Disclaimer

   EN    FR    IT 

 










Légende :    VFR   VFR Marginal   IFR   IFR Intensif   IFR Très Intensif
Visi : 
Plafond : 
>= 8 km
>= 3000ft
5 à 8 km
1000 à 3000 ft
1500m à 5 km
500 à 1000 ft
800 à 1500m
200 à 500 ft
< 800m
< 200 ft
Symboles :   Orages  Brouillard  Fortes neiges  Fortes précipitations  Vent > 20 kt
SIGMETs :   Divers  Orages  Givrage  Turbulence  Onde Orograph.  Cendres Volcan.






- Altitude de l'aérodrome : 146 ft
- Code IATA : RKE


EKRK - Roskilde Tune

DERNIER METAR :
  • 191620Z AUTO 15007KT 9999 BKN045/// BKN160/// 12/09 Q1006

METARs EXPIRÉS :
  • 191550Z AUTO 16006KT 9999 BKN050/// 12/10 Q1006
  • 191520Z AUTO 16006KT 9999 -SHRA BKN064/// BKN170/// 13/10 Q1006
  • 191450Z 17005KT 9999 SCT025 BKN055 13/10 Q1006
  • 191421Z 18009KT 9999 BKN025 13/09 Q1006
  • 191351Z 17010KT 9999 SCT025 BKN055 13/09 Q1006

TAF TAF EKRK
Valide du 19 à 15h jusqu'au 20 à 00h UTC


191424Z 1915/1924 17010KT 9999 SCT025
TEMPO 1916/1924 4000 SHRA BKN010 SCT020CB



MET'MAP, la Météo Aéronautique d'un coup d'oeil ! - Copyright ORBIFLY Décembre 2007 - Disclaimer

ORBIFLY MET'MAP TEAM :

Programmation & Développement : Alexandra Zaïnal
Conception & Développement : Baudouin d'Aumeries
Co-Programmation & Développement : Marc-Olivier Méhu
Soutien technique & logistique : Manuel Goepfert

Contact : metmap@orbifly.com




SOURCES & CREDITS :

   NOAA